St Mary's Airport
PASM : now visible

Airfield :











YOU CAN JOIN US ON...

 
LOGIN :

Register | Disclaimer

   EN    FR    IT 

 









Legend :    VFR   Marginal VFR   IFR   Intensive IFR   Very Intensive IFR
Visi :
Ceiling :
>= 8 km
>= 3000ft
5 to 8 km
1000 to 3000 ft
1500m to 5 km
500 to 1000 ft
800 to 1500m
200 to 500 ft
< 800m
< 200 ft
Symbols :   Thunderstorms  Fog  Heavy snow  Heavy precipitations  Wind > 20 kt






- Airport Elevation : 312 ft
- IATA code : KSM


PASM - St Mary's

CURRENT METAR :
  • 040856Z AUTO 20009KT 5SM BR BKN075 11/08 A2995 RMK AO2 SLP148 T01060083 53014

EXPIRED METARs :
  • 040813Z AUTO 21010KT 8SM SCT032 OVC043 12/08 A2994 RMK AO2
  • 040756Z AUTO 20011KT 10SM BKN027 OVC036 12/09 A2993 RMK AO2 SLP144 T01220089 401610089
  • 040724Z AUTO 21007KT 6SM HZ OVC029 13/09 A2993 RMK AO2
  • 040713Z AUTO 19006KT 2SM HZ OVC029 13/09 A2992 RMK AO2
  • 040656Z AUTO 13005KT 1 3/4SM HZ OVC033 13/09 A2992 RMK AO2 SLP138 T01280094
  • 040630Z AUTO 15007KT 1 3/4SM HZ FEW035 SCT047 BKN060 13/09 A2991 RMK AO2
  • 040616Z AUTO 15006KT 3SM HZ FEW060 14/09 A2991 RMK AO2

TAF N/A
PAZA FIR / North America



MET'MAP, your aeronautical weather chart ! - Copyright ORBIFLY December 2007 - Disclaimer

ORBIFLY MET'MAP TEAM :

Programming & Development : Alexandra Zaïnal
Concept & original design : Baudouin d'Aumeries
Assistance for programming : Marc-Olivier Méhu
Technical & hardware support : Manuel Goepfert

Contact : metmap@orbifly.com




SOURCES & CREDITS :

   NOAA       Earth
Advisory